Terminal Aerodrome Forecast
Issued by NWS La Crosse, WI

Home | Current Version | Previous Version | Text Only | Print | Product List | Glossary On
Versions: 1 2 3 4 5 6 7 8 9 10 11 12 13 14 15 16 17 18 19 20 21 22 23 24 25 26 27 28 29 30 31 32 33 34 35 36 37
000
FTUS43 KARX 282000 AAA
TAFRST
TAF AMD
KRST 282000Z 2820/2918 16018G25KT 4SM BR OVC009
     FM282200 16012KT P6SM OVC009
     FM290100 15005KT 2SM -DZ BR OVC003
     FM290800 32012G18KT 4SM -DZ BR OVC003
     FM291200 33019G27KT P6SM OVC005=

USA.gov is the U.S. government's official web portal to all federal, state and local government web resources and services.